sensor_id;sensor_type;location;lat;lon;timestamp;temperature;humidity
22426;DHT22;11380;50.822;15.790;2023-05-07T00:01:40;8.30;99.90
22426;DHT22;11380;50.822;15.790;2023-05-07T00:06:46;8.50;99.90
22426;DHT22;11380;50.822;15.790;2023-05-07T00:11:53;8.50;99.90
22426;DHT22;11380;50.822;15.790;2023-05-07T00:17:00;8.40;99.90
22426;DHT22;11380;50.822;15.790;2023-05-07T00:22:06;8.40;99.90
22426;DHT22;11380;50.822;15.790;2023-05-07T00:27:12;8.40;99.90
22426;DHT22;11380;50.822;15.790;2023-05-07T00:32:19;8.50;99.90
22426;DHT22;11380;50.822;15.790;2023-05-07T00:37:24;8.50;99.90
22426;DHT22;11380;50.822;15.790;2023-05-07T00:42:30;8.80;99.90
22426;DHT22;11380;50.822;15.790;2023-05-07T00:47:36;9.00;99.90
22426;DHT22;11380;50.822;15.790;2023-05-07T00:52:43;8.80;99.90
22426;DHT22;11380;50.822;15.790;2023-05-07T00:57:50;8.70;99.90
22426;DHT22;11380;50.822;15.790;2023-05-07T01:02:57;8.30;99.90
22426;DHT22;11380;50.822;15.790;2023-05-07T01:08:03;8.20;99.90
22426;DHT22;11380;50.822;15.790;2023-05-07T01:13:10;8.00;99.90
22426;DHT22;11380;50.822;15.790;2023-05-07T01:18:17;8.10;99.90
22426;DHT22;11380;50.822;15.790;2023-05-07T01:23:25;8.00;99.90
22426;DHT22;11380;50.822;15.790;2023-05-07T01:28:33;8.10;99.90
22426;DHT22;11380;50.822;15.790;2023-05-07T01:33:40;8.10;99.90
22426;DHT22;11380;50.822;15.790;2023-05-07T01:38:47;7.90;99.90
22426;DHT22;11380;50.822;15.790;2023-05-07T01:43:53;7.90;99.90
22426;DHT22;11380;50.822;15.790;2023-05-07T01:49:00;8.00;99.90
22426;DHT22;11380;50.822;15.790;2023-05-07T01:54:06;8.20;99.90
22426;DHT22;11380;50.822;15.790;2023-05-07T01:59:12;8.50;99.90
22426;DHT22;11380;50.822;15.790;2023-05-07T02:04:19;8.30;99.90
22426;DHT22;11380;50.822;15.790;2023-05-07T02:09:24;8.30;99.90
22426;DHT22;11380;50.822;15.790;2023-05-07T02:14:31;8.30;99.90
22426;DHT22;11380;50.822;15.790;2023-05-07T02:19:37;8.50;99.90
22426;DHT22;11380;50.822;15.790;2023-05-07T02:24:44;8.10;99.90
22426;DHT22;11380;50.822;15.790;2023-05-07T02:29:51;8.30;99.90
22426;DHT22;11380;50.822;15.790;2023-05-07T02:34:58;8.30;99.90
22426;DHT22;11380;50.822;15.790;2023-05-07T02:40:04;8.10;99.90
22426;DHT22;11380;50.822;15.790;2023-05-07T02:45:11;7.90;99.90
22426;DHT22;11380;50.822;15.790;2023-05-07T02:50:18;7.70;99.90
22426;DHT22;11380;50.822;15.790;2023-05-07T02:55:24;7.70;99.90
22426;DHT22;11380;50.822;15.790;2023-05-07T03:00:30;7.60;99.90
22426;DHT22;11380;50.822;15.790;2023-05-07T03:05:36;7.50;99.90
22426;DHT22;11380;50.822;15.790;2023-05-07T03:10:42;7.40;99.90
22426;DHT22;11380;50.822;15.790;2023-05-07T03:15:49;7.50;99.90
22426;DHT22;11380;50.822;15.790;2023-05-07T03:20:55;7.60;99.90
22426;DHT22;11380;50.822;15.790;2023-05-07T03:26:02;7.50;99.90
22426;DHT22;11380;50.822;15.790;2023-05-07T03:31:08;7.40;99.90
22426;DHT22;11380;50.822;15.790;2023-05-07T03:36:14;7.20;99.90
22426;DHT22;11380;50.822;15.790;2023-05-07T03:41:20;7.20;99.90
22426;DHT22;11380;50.822;15.790;2023-05-07T03:46:27;7.40;99.90
22426;DHT22;11380;50.822;15.790;2023-05-07T03:51:33;7.30;99.90
22426;DHT22;11380;50.822;15.790;2023-05-07T03:56:39;7.20;99.90
22426;DHT22;11380;50.822;15.790;2023-05-07T04:01:46;7.20;99.90
22426;DHT22;11380;50.822;15.790;2023-05-07T04:06:52;7.20;99.90
22426;DHT22;11380;50.822;15.790;2023-05-07T04:11:59;7.30;99.90
22426;DHT22;11380;50.822;15.790;2023-05-07T04:17:06;7.50;99.90
22426;DHT22;11380;50.822;15.790;2023-05-07T04:22:14;7.20;99.90
22426;DHT22;11380;50.822;15.790;2023-05-07T04:27:21;7.30;99.90
22426;DHT22;11380;50.822;15.790;2023-05-07T04:32:27;7.10;99.90
22426;DHT22;11380;50.822;15.790;2023-05-07T04:37:33;7.20;99.90
22426;DHT22;11380;50.822;15.790;2023-05-07T04:42:39;7.20;99.90
22426;DHT22;11380;50.822;15.790;2023-05-07T04:47:45;7.10;99.90
22426;DHT22;11380;50.822;15.790;2023-05-07T04:52:52;7.20;99.90
22426;DHT22;11380;50.822;15.790;2023-05-07T04:57:57;7.40;99.90
22426;DHT22;11380;50.822;15.790;2023-05-07T05:03:06;7.30;99.90
22426;DHT22;11380;50.822;15.790;2023-05-07T05:08:12;7.30;99.90
22426;DHT22;11380;50.822;15.790;2023-05-07T05:13:20;7.40;99.90
22426;DHT22;11380;50.822;15.790;2023-05-07T05:18:26;7.30;99.90
22426;DHT22;11380;50.822;15.790;2023-05-07T05:23:32;7.40;99.90
22426;DHT22;11380;50.822;15.790;2023-05-07T05:28:39;7.30;99.90
22426;DHT22;11380;50.822;15.790;2023-05-07T05:33:44;7.40;99.90
22426;DHT22;11380;50.822;15.790;2023-05-07T05:38:51;7.50;99.90
22426;DHT22;11380;50.822;15.790;2023-05-07T05:43:58;7.50;99.90
22426;DHT22;11380;50.822;15.790;2023-05-07T05:49:04;7.50;99.90
22426;DHT22;11380;50.822;15.790;2023-05-07T05:54:11;7.50;99.90
22426;DHT22;11380;50.822;15.790;2023-05-07T05:59:17;7.50;99.90
22426;DHT22;11380;50.822;15.790;2023-05-07T06:04:23;7.50;99.90
22426;DHT22;11380;50.822;15.790;2023-05-07T06:09:29;7.60;99.90
22426;DHT22;11380;50.822;15.790;2023-05-07T06:14:36;7.60;99.90
22426;DHT22;11380;50.822;15.790;2023-05-07T06:19:43;7.30;99.90
22426;DHT22;11380;50.822;15.790;2023-05-07T06:24:49;7.40;99.90
22426;DHT22;11380;50.822;15.790;2023-05-07T06:29:54;7.70;99.90
22426;DHT22;11380;50.822;15.790;2023-05-07T06:35:01;7.70;99.90
22426;DHT22;11380;50.822;15.790;2023-05-07T06:40:07;7.90;99.90
22426;DHT22;11380;50.822;15.790;2023-05-07T06:45:14;8.00;99.90
22426;DHT22;11380;50.822;15.790;2023-05-07T06:50:21;7.80;99.90
22426;DHT22;11380;50.822;15.790;2023-05-07T06:55:29;7.80;99.90
22426;DHT22;11380;50.822;15.790;2023-05-07T07:00:35;8.00;99.90
22426;DHT22;11380;50.822;15.790;2023-05-07T07:05:41;8.00;99.90
22426;DHT22;11380;50.822;15.790;2023-05-07T07:10:48;8.20;99.90
22426;DHT22;11380;50.822;15.790;2023-05-07T07:15:54;8.40;99.90
22426;DHT22;11380;50.822;15.790;2023-05-07T07:21:00;8.20;99.90
22426;DHT22;11380;50.822;15.790;2023-05-07T07:26:08;8.30;99.90
22426;DHT22;11380;50.822;15.790;2023-05-07T07:31:14;8.20;99.90
22426;DHT22;11380;50.822;15.790;2023-05-07T07:36:20;8.20;99.90
22426;DHT22;11380;50.822;15.790;2023-05-07T07:41:27;7.80;99.90
22426;DHT22;11380;50.822;15.790;2023-05-07T07:46:33;7.80;99.90
22426;DHT22;11380;50.822;15.790;2023-05-07T07:51:39;7.90;99.90
22426;DHT22;11380;50.822;15.790;2023-05-07T07:56:45;7.70;99.90
22426;DHT22;11380;50.822;15.790;2023-05-07T08:01:51;7.90;99.90
22426;DHT22;11380;50.822;15.790;2023-05-07T08:06:59;7.90;99.90
22426;DHT22;11380;50.822;15.790;2023-05-07T08:12:06;7.90;99.90
22426;DHT22;11380;50.822;15.790;2023-05-07T08:17:12;8.10;99.90
22426;DHT22;11380;50.822;15.790;2023-05-07T08:22:20;8.10;99.90
22426;DHT22;11380;50.822;15.790;2023-05-07T08:27:26;8.50;99.90
22426;DHT22;11380;50.822;15.790;2023-05-07T08:32:32;8.60;99.90
22426;DHT22;11380;50.822;15.790;2023-05-07T08:37:44;8.70;99.90
22426;DHT22;11380;50.822;15.790;2023-05-07T08:42:51;8.60;99.90
22426;DHT22;11380;50.822;15.790;2023-05-07T08:48:05;8.20;99.90
22426;DHT22;11380;50.822;15.790;2023-05-07T08:53:23;8.10;99.90
22426;DHT22;11380;50.822;15.790;2023-05-07T08:58:32;8.00;99.90
22426;DHT22;11380;50.822;15.790;2023-05-07T09:03:38;8.50;99.90
22426;DHT22;11380;50.822;15.790;2023-05-07T09:08:48;8.60;99.90
22426;DHT22;11380;50.822;15.790;2023-05-07T09:13:56;8.20;99.90
22426;DHT22;11380;50.822;15.790;2023-05-07T09:19:04;8.50;99.90
22426;DHT22;11380;50.822;15.790;2023-05-07T09:24:09;8.60;99.90
22426;DHT22;11380;50.822;15.790;2023-05-07T09:29:19;8.50;99.90
22426;DHT22;11380;50.822;15.790;2023-05-07T09:34:24;8.50;98.10
22426;DHT22;11380;50.822;15.790;2023-05-07T09:39:44;8.50;99.90
22426;DHT22;11380;50.822;15.790;2023-05-07T09:44:52;8.40;99.90
22426;DHT22;11380;50.822;15.790;2023-05-07T09:49:58;8.40;99.90
22426;DHT22;11380;50.822;15.790;2023-05-07T09:55:05;8.50;99.90
22426;DHT22;11380;50.822;15.790;2023-05-07T10:00:12;8.10;99.90
22426;DHT22;11380;50.822;15.790;2023-05-07T10:05:27;7.90;99.90
22426;DHT22;11380;50.822;15.790;2023-05-07T10:10:28;7.70;99.90
22426;DHT22;11380;50.822;15.790;2023-05-07T10:15:36;7.70;99.90
22426;DHT22;11380;50.822;15.790;2023-05-07T10:20:45;7.80;99.90
22426;DHT22;11380;50.822;15.790;2023-05-07T10:25:53;7.60;99.90
22426;DHT22;11380;50.822;15.790;2023-05-07T10:36:43;8.20;99.90
22426;DHT22;11380;50.822;15.790;2023-05-07T10:41:51;8.10;99.90
22426;DHT22;11380;50.822;15.790;2023-05-07T10:47:08;8.30;99.90
22426;DHT22;11380;50.822;15.790;2023-05-07T10:52:23;8.60;99.90
22426;DHT22;11380;50.822;15.790;2023-05-07T10:57:35;8.80;14.60
22426;DHT22;11380;50.822;15.790;2023-05-07T11:08:11;8.90;1.00
22426;DHT22;11380;50.822;15.790;2023-05-07T11:13:18;8.70;1.00
22426;DHT22;11380;50.822;15.790;2023-05-07T11:18:46;8.60;1.00
22426;DHT22;11380;50.822;15.790;2023-05-07T11:29:02;8.20;1.00
22426;DHT22;11380;50.822;15.790;2023-05-07T11:34:12;8.40;1.00
22426;DHT22;11380;50.822;15.790;2023-05-07T11:39:25;8.30;1.00
22426;DHT22;11380;50.822;15.790;2023-05-07T11:44:41;7.80;1.00
22426;DHT22;11380;50.822;15.790;2023-05-07T11:55:10;8.10;1.00
22426;DHT22;11380;50.822;15.790;2023-05-07T12:00:16;7.90;1.00
22426;DHT22;11380;50.822;15.790;2023-05-07T12:05:28;8.30;1.00
22426;DHT22;11380;50.822;15.790;2023-05-07T12:10:41;8.50;1.00
22426;DHT22;11380;50.822;15.790;2023-05-07T12:15:51;8.30;1.00
22426;DHT22;11380;50.822;15.790;2023-05-07T12:20:57;8.10;1.00
22426;DHT22;11380;50.822;15.790;2023-05-07T12:26:05;8.20;1.00
22426;DHT22;11380;50.822;15.790;2023-05-07T12:31:13;7.70;1.00
22426;DHT22;11380;50.822;15.790;2023-05-07T12:36:20;7.70;1.00
22426;DHT22;11380;50.822;15.790;2023-05-07T12:41:25;7.70;1.00
22426;DHT22;11380;50.822;15.790;2023-05-07T12:46:38;7.60;1.00
22426;DHT22;11380;50.822;15.790;2023-05-07T12:51:43;7.40;1.00
22426;DHT22;11380;50.822;15.790;2023-05-07T12:56:59;7.70;1.00
22426;DHT22;11380;50.822;15.790;2023-05-07T13:02:06;7.90;1.00
22426;DHT22;11380;50.822;15.790;2023-05-07T13:07:14;7.80;1.00
22426;DHT22;11380;50.822;15.790;2023-05-07T13:12:22;8.00;1.00
22426;DHT22;11380;50.822;15.790;2023-05-07T13:17:29;7.90;1.00
22426;DHT22;11380;50.822;15.790;2023-05-07T13:22:35;7.80;1.00
22426;DHT22;11380;50.822;15.790;2023-05-07T13:27:46;7.70;1.00
22426;DHT22;11380;50.822;15.790;2023-05-07T13:32:55;8.20;1.00
22426;DHT22;11380;50.822;15.790;2023-05-07T13:38:01;8.40;1.00
22426;DHT22;11380;50.822;15.790;2023-05-07T13:43:08;8.40;1.00
22426;DHT22;11380;50.822;15.790;2023-05-07T13:48:15;8.00;1.00
22426;DHT22;11380;50.822;15.790;2023-05-07T13:53:23;8.30;1.00
22426;DHT22;11380;50.822;15.790;2023-05-07T13:58:29;8.10;1.00
22426;DHT22;11380;50.822;15.790;2023-05-07T14:03:36;8.40;1.00
22426;DHT22;11380;50.822;15.790;2023-05-07T14:08:44;8.50;1.00
22426;DHT22;11380;50.822;15.790;2023-05-07T14:13:49;8.00;1.00
22426;DHT22;11380;50.822;15.790;2023-05-07T14:18:56;7.90;1.00
22426;DHT22;11380;50.822;15.790;2023-05-07T14:24:03;8.00;1.00
22426;DHT22;11380;50.822;15.790;2023-05-07T14:29:11;8.20;1.00
22426;DHT22;11380;50.822;15.790;2023-05-07T14:34:27;8.10;1.00
22426;DHT22;11380;50.822;15.790;2023-05-07T14:39:35;8.20;1.00
22426;DHT22;11380;50.822;15.790;2023-05-07T14:44:41;8.40;1.00
22426;DHT22;11380;50.822;15.790;2023-05-07T14:49:50;8.30;1.00
22426;DHT22;11380;50.822;15.790;2023-05-07T14:54:57;8.00;1.00
22426;DHT22;11380;50.822;15.790;2023-05-07T15:00:05;8.10;1.00
22426;DHT22;11380;50.822;15.790;2023-05-07T15:05:12;8.00;1.00
22426;DHT22;11380;50.822;15.790;2023-05-07T15:10:18;8.10;1.00
22426;DHT22;11380;50.822;15.790;2023-05-07T15:15:26;8.10;1.00
22426;DHT22;11380;50.822;15.790;2023-05-07T15:20:34;8.00;1.00
22426;DHT22;11380;50.822;15.790;2023-05-07T15:25:41;7.90;1.00
22426;DHT22;11380;50.822;15.790;2023-05-07T15:30:48;8.30;1.00
22426;DHT22;11380;50.822;15.790;2023-05-07T15:35:54;8.50;1.00
22426;DHT22;11380;50.822;15.790;2023-05-07T15:41:01;8.10;1.00
22426;DHT22;11380;50.822;15.790;2023-05-07T15:46:10;7.90;1.00
22426;DHT22;11380;50.822;15.790;2023-05-07T15:51:16;8.20;1.00
22426;DHT22;11380;50.822;15.790;2023-05-07T15:56:22;8.00;1.00
22426;DHT22;11380;50.822;15.790;2023-05-07T16:01:28;8.00;1.00
22426;DHT22;11380;50.822;15.790;2023-05-07T16:06:35;7.90;1.00
22426;DHT22;11380;50.822;15.790;2023-05-07T16:11:42;8.00;1.00
22426;DHT22;11380;50.822;15.790;2023-05-07T16:16:48;7.90;1.00
22426;DHT22;11380;50.822;15.790;2023-05-07T16:21:56;7.90;1.00
22426;DHT22;11380;50.822;15.790;2023-05-07T16:27:04;8.00;1.00
22426;DHT22;11380;50.822;15.790;2023-05-07T16:32:10;8.20;1.00
22426;DHT22;11380;50.822;15.790;2023-05-07T16:37:16;8.00;1.00
22426;DHT22;11380;50.822;15.790;2023-05-07T16:42:21;7.80;1.00
22426;DHT22;11380;50.822;15.790;2023-05-07T16:47:31;7.70;1.00
22426;DHT22;11380;50.822;15.790;2023-05-07T16:52:38;7.70;1.00
22426;DHT22;11380;50.822;15.790;2023-05-07T16:57:47;7.60;1.00
22426;DHT22;11380;50.822;15.790;2023-05-07T17:02:53;7.60;1.00
22426;DHT22;11380;50.822;15.790;2023-05-07T17:08:00;7.60;1.00
22426;DHT22;11380;50.822;15.790;2023-05-07T17:13:07;7.40;1.00
22426;DHT22;11380;50.822;15.790;2023-05-07T17:18:13;7.50;1.00
22426;DHT22;11380;50.822;15.790;2023-05-07T17:23:22;7.50;1.00
22426;DHT22;11380;50.822;15.790;2023-05-07T17:28:29;7.40;1.00
22426;DHT22;11380;50.822;15.790;2023-05-07T17:33:36;7.30;1.00
22426;DHT22;11380;50.822;15.790;2023-05-07T17:38:43;7.30;1.00
22426;DHT22;11380;50.822;15.790;2023-05-07T17:43:50;7.30;1.00
22426;DHT22;11380;50.822;15.790;2023-05-07T17:48:56;7.30;1.00
22426;DHT22;11380;50.822;15.790;2023-05-07T17:54:02;7.20;1.00
22426;DHT22;11380;50.822;15.790;2023-05-07T17:59:08;7.30;1.00
22426;DHT22;11380;50.822;15.790;2023-05-07T18:04:15;7.20;1.00
22426;DHT22;11380;50.822;15.790;2023-05-07T18:09:24;7.30;1.00
22426;DHT22;11380;50.822;15.790;2023-05-07T18:14:33;7.30;1.00
22426;DHT22;11380;50.822;15.790;2023-05-07T18:19:39;7.30;1.00
22426;DHT22;11380;50.822;15.790;2023-05-07T18:24:47;7.20;1.00
22426;DHT22;11380;50.822;15.790;2023-05-07T18:29:53;7.20;1.00
22426;DHT22;11380;50.822;15.790;2023-05-07T18:34:59;7.20;1.00
22426;DHT22;11380;50.822;15.790;2023-05-07T18:40:06;7.20;1.00
22426;DHT22;11380;50.822;15.790;2023-05-07T18:45:13;7.20;1.00
22426;DHT22;11380;50.822;15.790;2023-05-07T18:50:22;7.20;1.00
22426;DHT22;11380;50.822;15.790;2023-05-07T18:55:28;7.10;1.00
22426;DHT22;11380;50.822;15.790;2023-05-07T19:00:35;7.20;1.00
22426;DHT22;11380;50.822;15.790;2023-05-07T19:05:44;7.10;1.00
22426;DHT22;11380;50.822;15.790;2023-05-07T19:10:53;7.20;1.00
22426;DHT22;11380;50.822;15.790;2023-05-07T19:15:59;7.10;1.00
22426;DHT22;11380;50.822;15.790;2023-05-07T19:21:08;7.10;1.00
22426;DHT22;11380;50.822;15.790;2023-05-07T19:26:14;7.10;1.00
22426;DHT22;11380;50.822;15.790;2023-05-07T19:31:26;7.20;1.00
22426;DHT22;11380;50.822;15.790;2023-05-07T19:36:33;7.10;1.00
22426;DHT22;11380;50.822;15.790;2023-05-07T19:41:41;7.00;1.00
22426;DHT22;11380;50.822;15.790;2023-05-07T19:46:49;7.00;1.00
22426;DHT22;11380;50.822;15.790;2023-05-07T19:51:55;7.00;1.00
22426;DHT22;11380;50.822;15.790;2023-05-07T19:57:02;7.00;1.00
22426;DHT22;11380;50.822;15.790;2023-05-07T20:02:11;7.00;1.00
22426;DHT22;11380;50.822;15.790;2023-05-07T20:07:18;7.00;1.00
22426;DHT22;11380;50.822;15.790;2023-05-07T20:12:25;7.00;1.00
22426;DHT22;11380;50.822;15.790;2023-05-07T20:17:31;6.90;1.00
22426;DHT22;11380;50.822;15.790;2023-05-07T20:22:37;6.90;1.00
22426;DHT22;11380;50.822;15.790;2023-05-07T20:27:44;6.90;1.00
22426;DHT22;11380;50.822;15.790;2023-05-07T20:32:50;6.80;1.00
22426;DHT22;11380;50.822;15.790;2023-05-07T20:37:57;7.00;1.00
22426;DHT22;11380;50.822;15.790;2023-05-07T20:43:06;7.00;1.00
22426;DHT22;11380;50.822;15.790;2023-05-07T20:48:12;6.80;1.00
22426;DHT22;11380;50.822;15.790;2023-05-07T20:53:19;6.70;1.00
22426;DHT22;11380;50.822;15.790;2023-05-07T20:58:27;6.70;1.00
22426;DHT22;11380;50.822;15.790;2023-05-07T21:03:33;6.80;1.00
22426;DHT22;11380;50.822;15.790;2023-05-07T21:08:42;6.80;1.00
22426;DHT22;11380;50.822;15.790;2023-05-07T21:13:51;6.70;1.00
22426;DHT22;11380;50.822;15.790;2023-05-07T21:19:01;6.70;1.00
22426;DHT22;11380;50.822;15.790;2023-05-07T21:24:08;6.70;1.00
22426;DHT22;11380;50.822;15.790;2023-05-07T21:29:14;6.60;1.00
22426;DHT22;11380;50.822;15.790;2023-05-07T21:34:22;6.60;1.00
22426;DHT22;11380;50.822;15.790;2023-05-07T21:39:28;6.60;1.00
22426;DHT22;11380;50.822;15.790;2023-05-07T21:44:34;6.60;1.00
22426;DHT22;11380;50.822;15.790;2023-05-07T21:49:40;6.50;1.00
22426;DHT22;11380;50.822;15.790;2023-05-07T21:54:50;6.50;1.00
22426;DHT22;11380;50.822;15.790;2023-05-07T21:59:57;6.50;1.00
22426;DHT22;11380;50.822;15.790;2023-05-07T22:05:03;6.50;1.00
22426;DHT22;11380;50.822;15.790;2023-05-07T22:10:09;6.60;1.00
22426;DHT22;11380;50.822;15.790;2023-05-07T22:15:15;6.50;1.00
22426;DHT22;11380;50.822;15.790;2023-05-07T22:20:22;6.50;1.00
22426;DHT22;11380;50.822;15.790;2023-05-07T22:25:30;6.40;1.00
22426;DHT22;11380;50.822;15.790;2023-05-07T22:30:38;6.30;1.00
22426;DHT22;11380;50.822;15.790;2023-05-07T22:35:45;6.30;1.00
22426;DHT22;11380;50.822;15.790;2023-05-07T22:40:51;6.40;1.00
22426;DHT22;11380;50.822;15.790;2023-05-07T22:45:58;6.30;1.00
22426;DHT22;11380;50.822;15.790;2023-05-07T22:51:06;6.30;1.00
22426;DHT22;11380;50.822;15.790;2023-05-07T22:56:19;6.30;1.00
22426;DHT22;11380;50.822;15.790;2023-05-07T23:01:25;6.20;1.00
22426;DHT22;11380;50.822;15.790;2023-05-07T23:06:31;6.20;1.00
22426;DHT22;11380;50.822;15.790;2023-05-07T23:11:38;6.20;1.00
22426;DHT22;11380;50.822;15.790;2023-05-07T23:16:44;6.20;1.00
22426;DHT22;11380;50.822;15.790;2023-05-07T23:21:50;6.10;1.00
22426;DHT22;11380;50.822;15.790;2023-05-07T23:26:57;6.10;1.00
22426;DHT22;11380;50.822;15.790;2023-05-07T23:32:03;6.00;1.00
22426;DHT22;11380;50.822;15.790;2023-05-07T23:37:09;5.90;1.00
22426;DHT22;11380;50.822;15.790;2023-05-07T23:42:14;6.00;1.00
22426;DHT22;11380;50.822;15.790;2023-05-07T23:47:21;5.90;1.00
22426;DHT22;11380;50.822;15.790;2023-05-07T23:52:27;5.90;1.00
22426;DHT22;11380;50.822;15.790;2023-05-07T23:57:32;5.80;1.00
